Terminal Aerodrome Forecast
Issued by NWS

Home | Current Version | Previous Version | Text Only | Print | Product List | Glossary On
Versions: 1 2 3 4 5 6 7 8 9 10 11 12 13 14 15 16 17 18
000
FTUS42 KMLB 301831 AAA
TAFLEE
TAF AMD
KLEE 301831Z 3019/3118 19004KT P6SM VCTS SCT025CB BKN050
      TEMPO 3019/3020 VRB15G25KT 1SM +TSRA FEW008 BKN025CB OVC040
     FM302000 15005KT P6SM VCTS SCT030CB SCT050 BKN250
      TEMPO 3020/3021 3SM TSRA BKN035CB BKN080
     FM310100 15004KT P6SM FEW030 SCT100 BKN250
     FM310600 16003KT P6SM SCT250
     FM311500 16005KT P6SM FEW035=

USA.gov is the U.S. government's official web portal to all federal, state and local government web resources and services.